createdAt,value
2023-01-13T00:00:31.859Z,5.5
2023-01-13T00:01:41.650Z,6.4
2023-01-13T00:02:51.662Z,5.6
2023-01-13T00:04:00.626Z,6.7
2023-01-13T00:05:10.614Z,7
2023-01-13T00:06:20.558Z,6.9
2023-01-13T00:07:30.543Z,5.6
2023-01-13T00:08:40.540Z,6.8
2023-01-13T00:09:49.519Z,6
2023-01-13T00:10:58.485Z,6.3
2023-01-13T00:12:08.480Z,6.1
2023-01-13T00:13:18.405Z,6.3
2023-01-13T00:14:27.284Z,5.9
2023-01-13T00:15:37.241Z,5.5
2023-01-13T00:16:46.092Z,5.7
2023-01-13T00:17:56.004Z,5.7
2023-01-13T00:19:06.273Z,6.1
2023-01-13T00:20:16.591Z,5.9
2023-01-13T00:21:28.141Z,6.8
2023-01-13T00:22:38.278Z,6.8
2023-01-13T00:23:48.260Z,5.8
2023-01-13T00:24:58.158Z,5.7
2023-01-13T00:26:08.056Z,6.2
2023-01-13T00:27:18.009Z,5.9
2023-01-13T00:28:26.877Z,7.4
2023-01-13T00:29:35.753Z,7.5
2023-01-13T00:30:45.686Z,7.4
2023-01-13T00:31:55.653Z,7.2
2023-01-13T00:33:04.630Z,6.5
2023-01-13T00:34:14.585Z,7.9
2023-01-13T00:35:23.462Z,7.3
2023-01-13T00:36:33.345Z,7.2
2023-01-13T00:37:43.235Z,2.1
2023-01-13T00:38:52.146Z,1.3
2023-01-13T00:40:02.120Z,1.4
2023-01-13T00:41:11.041Z,1.4
2023-01-13T00:42:21.000Z,1.8
2023-01-13T00:43:30.953Z,0.9
2023-01-13T00:44:39.941Z,1.1
2023-01-13T00:45:49.949Z,1
2023-01-13T00:46:58.906Z,0.7
2023-01-13T00:48:06.861Z,0.7
2023-01-13T00:49:16.939Z,0.6
2023-01-13T00:50:26.944Z,0.8
2023-01-13T00:51:36.891Z,0.9
2023-01-13T00:52:46.823Z,0.6
2023-01-13T00:53:56.793Z,0.6
2023-01-13T00:55:06.766Z,0.7
2023-01-13T00:56:18.216Z,0.4
2023-01-13T00:57:27.691Z,0.5
2023-01-13T00:58:37.619Z,0.5
2023-01-13T00:59:49.507Z,0.9
2023-01-13T01:00:58.661Z,2.1
2023-01-13T01:02:08.612Z,1.5
2023-01-13T01:03:17.568Z,1.3
2023-01-13T01:04:27.535Z,0.9
2023-01-13T01:05:37.486Z,1.3
2023-01-13T01:06:46.449Z,0.6
2023-01-13T01:07:56.453Z,0.7
2023-01-13T01:09:06.441Z,0.9
2023-01-13T01:10:16.495Z,0.6
2023-01-13T01:11:26.531Z,0.8
2023-01-13T01:12:36.519Z,0.5
2023-01-13T01:13:46.515Z,0.4
2023-01-13T01:14:55.469Z,0.7
2023-01-13T01:16:04.524Z,1
2023-01-13T01:17:14.385Z,0.8
2023-01-13T01:18:23.316Z,0.9
2023-01-13T01:19:33.313Z,0.8
2023-01-13T01:20:43.274Z,1.1
2023-01-13T01:21:53.241Z,0.9
2023-01-13T01:23:03.218Z,0.8
2023-01-13T01:24:13.175Z,0.9
2023-01-13T01:25:23.154Z,0.5
2023-01-13T01:26:33.104Z,0.4
2023-01-13T01:27:42.092Z,0.5
2023-01-13T01:28:52.024Z,0.2
2023-01-13T01:30:01.966Z,0.3
2023-01-13T01:31:10.959Z,0.3
2023-01-13T01:32:21.853Z,0.4
2023-01-13T01:33:30.829Z,0.3
2023-01-13T01:34:40.777Z,0.3
2023-01-13T01:35:50.882Z,0.3
2023-01-13T01:37:00.945Z,0.4
2023-01-13T01:38:10.924Z,0.4
2023-01-13T01:39:20.883Z,0.4
2023-01-13T01:40:30.813Z,0.5
2023-01-13T01:41:40.750Z,0.5
2023-01-13T01:42:49.942Z,0.4
2023-01-13T01:44:00.139Z,0.3
2023-01-13T01:45:08.856Z,0.4
2023-01-13T01:46:17.827Z,0.4
2023-01-13T01:47:27.783Z,0.4
2023-01-13T01:48:37.755Z,0.5
2023-01-13T01:49:47.722Z,0.3
2023-01-13T01:50:57.751Z,0.5
2023-01-13T01:52:07.717Z,0.4
2023-01-13T01:53:16.697Z,0.5
2023-01-13T01:54:26.675Z,0.5
2023-01-13T01:55:35.617Z,0.5
2023-01-13T01:56:45.594Z,0.4
2023-01-13T01:57:54.567Z,0.4
2023-01-13T01:59:03.492Z,0.6
2023-01-13T02:00:13.470Z,0.5
2023-01-13T02:01:23.473Z,0.4
2023-01-13T02:02:33.453Z,0.4
2023-01-13T02:03:43.326Z,0.6
2023-01-13T02:04:52.274Z,0.4
2023-01-13T02:06:02.268Z,0.4
2023-01-13T02:07:12.234Z,0.5
2023-01-13T02:08:21.240Z,0.4
2023-01-13T02:09:31.219Z,0.4
2023-01-13T02:10:41.270Z,0.4
2023-01-13T02:11:50.335Z,0.4
2023-01-13T02:13:00.279Z,0.3
2023-01-13T02:14:10.195Z,0.3
2023-01-13T02:15:20.140Z,0.4
2023-01-13T02:16:30.207Z,0.4
2023-01-13T02:17:39.041Z,0.4
2023-01-13T02:18:49.018Z,0.5
2023-01-13T02:19:59.043Z,0.4
2023-01-13T02:21:09.002Z,0.3
2023-01-13T02:22:18.942Z,0.5
2023-01-13T02:23:27.953Z,0.5
2023-01-13T02:24:37.923Z,0.4
2023-01-13T02:25:47.904Z,0.5
2023-01-13T02:26:57.842Z,0.5
2023-01-13T02:28:07.796Z,0.6
2023-01-13T02:29:17.781Z,0.5
2023-01-13T02:30:27.745Z,0.6
2023-01-13T02:31:37.759Z,0.4
2023-01-13T02:32:46.676Z,0.5
2023-01-13T02:33:56.643Z,0.4
2023-01-13T02:35:05.654Z,0.4
2023-01-13T02:36:15.604Z,0.5
2023-01-13T02:37:25.639Z,0.4
2023-01-13T02:38:34.570Z,0.4
2023-01-13T02:39:44.522Z,0.4
2023-01-13T02:40:54.519Z,0.4
2023-01-13T02:42:04.519Z,0.6
2023-01-13T02:43:14.518Z,0.6
2023-01-13T02:44:25.436Z,0.5
2023-01-13T02:45:34.453Z,0.6
2023-01-13T02:46:44.425Z,0.5
2023-01-13T02:47:52.338Z,0.4
2023-01-13T02:49:01.258Z,0.5
2023-01-13T02:50:10.250Z,0.5
2023-01-13T02:51:20.200Z,0.6
2023-01-13T02:52:30.180Z,0.6
2023-01-13T02:53:39.145Z,0.6
2023-01-13T02:54:49.066Z,0.5
2023-01-13T02:55:59.060Z,0.5
2023-01-13T02:57:09.057Z,0.5
2023-01-13T02:58:19.051Z,0.4
2023-01-13T02:59:28.888Z,0.4
2023-01-13T03:00:38.633Z,0.3
2023-01-13T03:01:48.442Z,0.4
2023-01-13T03:02:58.221Z,0.4
2023-01-13T03:04:07.885Z,0.5
2023-01-13T03:05:17.641Z,0.4
2023-01-13T03:06:27.374Z,0.4
2023-01-13T03:07:37.099Z,0.5
2023-01-13T03:08:45.851Z,0.4
2023-01-13T03:09:55.651Z,0.5
2023-01-13T03:11:05.396Z,0.6
2023-01-13T03:12:13.134Z,0.5
2023-01-13T03:13:22.900Z,0.4
2023-01-13T03:14:32.606Z,0.5
2023-01-13T03:15:41.385Z,0.5
2023-01-13T03:16:51.226Z,0.4
2023-01-13T03:18:00.862Z,0.5
2023-01-13T03:19:10.613Z,0.6
2023-01-13T03:20:20.344Z,0.5
2023-01-13T03:21:30.135Z,0.4
2023-01-13T03:22:39.905Z,0.6
2023-01-13T03:23:48.656Z,0.5
2023-01-13T03:24:58.448Z,0.6
2023-01-13T03:26:08.177Z,0.5
2023-01-13T03:27:16.961Z,0.5
2023-01-13T03:28:26.738Z,0.5
2023-01-13T03:29:36.453Z,0.7
2023-01-13T03:30:46.199Z,0.5
2023-01-13T03:31:54.891Z,0.7
2023-01-13T03:33:04.669Z,0.4
2023-01-13T03:34:14.447Z,0.7
2023-01-13T03:35:22.150Z,0.6
2023-01-13T03:36:31.944Z,0.6
2023-01-13T03:37:40.714Z,0.5
2023-01-13T03:38:50.493Z,0.5
2023-01-13T03:40:00.220Z,0.6
2023-01-13T03:41:09.954Z,0.7
2023-01-13T03:42:18.675Z,0.5
2023-01-13T03:43:28.432Z,0.5
2023-01-13T03:44:38.142Z,0.6
2023-01-13T03:45:46.799Z,0.5
2023-01-13T03:46:56.444Z,0.4
2023-01-13T03:48:05.155Z,0.4
2023-01-13T03:49:14.881Z,0.6
2023-01-13T03:50:24.642Z,0.5
2023-01-13T03:51:34.372Z,0.6
2023-01-13T03:52:44.176Z,0.7
2023-01-13T03:53:53.934Z,0.5
2023-01-13T03:55:02.731Z,0.5
2023-01-13T03:56:12.535Z,0.5
2023-01-13T03:57:22.303Z,0.5
2023-01-13T03:58:32.030Z,0.5
2023-01-13T03:59:40.783Z,0.6
2023-01-13T04:00:50.523Z,0.5
2023-01-13T04:02:00.453Z,0.6
2023-01-13T04:03:10.049Z,0.6
2023-01-13T04:04:19.781Z,0.5
2023-01-13T04:05:29.528Z,0.5
2023-01-13T04:06:39.286Z,0.6
2023-01-13T04:07:49.078Z,0.5
2023-01-13T04:08:58.819Z,0.7
2023-01-13T04:10:08.564Z,0.8
2023-01-13T04:11:18.314Z,0.6
2023-01-13T04:12:28.080Z,0.7
2023-01-13T04:13:37.829Z,0.7
2023-01-13T04:14:47.557Z,0.6
2023-01-13T04:15:56.339Z,0.5
2023-01-13T04:17:06.056Z,0.7
2023-01-13T04:18:15.820Z,0.5
2023-01-13T04:19:30.699Z,0.5
2023-01-13T04:20:40.392Z,0.4
2023-01-13T04:21:49.143Z,0.5
2023-01-13T04:22:57.928Z,0.4
2023-01-13T04:24:07.651Z,0.4
2023-01-13T04:25:17.428Z,0.4
2023-01-13T04:26:27.189Z,0.5
2023-01-13T04:27:36.944Z,0.4
2023-01-13T04:28:46.663Z,0.5
2023-01-13T04:29:56.408Z,0.6
2023-01-13T04:31:05.276Z,0.5
2023-01-13T04:32:14.956Z,0.5
2023-01-13T04:33:24.745Z,0.4
2023-01-13T04:34:34.497Z,0.5
2023-01-13T04:35:44.212Z,0.5
2023-01-13T04:36:54.048Z,0.4
2023-01-13T04:38:03.818Z,0.5
2023-01-13T04:39:13.583Z,0.5
2023-01-13T04:40:23.379Z,0.5
2023-01-13T04:41:33.121Z,0.4
2023-01-13T04:42:42.907Z,0.3
2023-01-13T04:43:52.673Z,0.4
2023-01-13T04:45:02.448Z,0.5
2023-01-13T04:46:11.351Z,0.4
2023-01-13T04:47:20.930Z,0.4
2023-01-13T04:48:30.728Z,0.3
2023-01-13T04:49:40.464Z,0.3
2023-01-13T04:50:50.192Z,0.4
2023-01-13T04:51:59.926Z,0.3
2023-01-13T04:53:08.698Z,0.3
2023-01-13T04:54:18.451Z,0.4
2023-01-13T04:55:28.173Z,0.5
2023-01-13T04:56:37.906Z,0.6
2023-01-13T04:57:47.649Z,0.4
2023-01-13T04:58:56.373Z,0.4
2023-01-13T05:00:06.159Z,0.4
2023-01-13T05:01:16.002Z,0.3
2023-01-13T05:02:24.644Z,0.4
2023-01-13T05:03:34.408Z,0.5
2023-01-13T05:04:44.180Z,0.5
2023-01-13T05:05:53.987Z,0.5
2023-01-13T05:07:03.721Z,0.7
2023-01-13T05:08:13.533Z,0.5
2023-01-13T05:09:22.285Z,0.6
2023-01-13T05:10:32.092Z,0.5
2023-01-13T05:11:40.815Z,0.5
2023-01-13T05:12:50.634Z,0.6
2023-01-13T05:13:59.404Z,0.8
2023-01-13T05:15:08.288Z,0.8
2023-01-13T05:16:18.110Z,0.7
2023-01-13T05:17:27.851Z,0.5
2023-01-13T05:18:36.558Z,0.7
2023-01-13T05:19:46.339Z,0.5
2023-01-13T05:20:55.086Z,0.6
2023-01-13T05:22:04.842Z,0.6
2023-01-13T05:23:13.610Z,0.5
2023-01-13T05:24:23.338Z,0.4
2023-01-13T05:25:33.074Z,0.4
2023-01-13T05:26:42.820Z,0.3
2023-01-13T05:27:52.610Z,0.3
2023-01-13T05:29:02.442Z,0.3
2023-01-13T05:30:12.215Z,0.3
2023-01-13T05:31:22.992Z,0.4
2023-01-13T05:32:31.671Z,0.4
2023-01-13T05:33:41.426Z,0.4
2023-01-13T05:34:51.168Z,0.3
2023-01-13T05:36:00.909Z,0.3
2023-01-13T05:37:10.648Z,0.4
2023-01-13T05:38:20.381Z,0.3
2023-01-13T05:39:29.153Z,0.3
2023-01-13T05:40:38.941Z,0.3
2023-01-13T05:41:48.723Z,0.5
2023-01-13T05:42:58.442Z,1.4
2023-01-13T05:44:07.212Z,1
2023-01-13T05:45:15.913Z,0.8
2023-01-13T05:46:25.697Z,0.9
2023-01-13T05:47:34.412Z,0.7
2023-01-13T05:48:44.152Z,1.1
2023-01-13T05:49:53.911Z,0.9
2023-01-13T05:51:02.646Z,1.4
2023-01-13T05:52:12.398Z,0.9
2023-01-13T05:53:22.170Z,1
2023-01-13T05:54:31.876Z,1.2
2023-01-13T05:55:41.626Z,0.7
2023-01-13T05:56:51.383Z,0.7
2023-01-13T05:58:01.169Z,0.6
2023-01-13T05:59:11.894Z,0.7
2023-01-13T06:00:21.661Z,0.5
2023-01-13T06:01:31.510Z,0.5
2023-01-13T06:02:40.202Z,0.4
2023-01-13T06:03:49.895Z,0.5
2023-01-13T06:04:59.650Z,0.5
2023-01-13T06:06:08.435Z,0.5
2023-01-13T06:07:18.237Z,0.5
2023-01-13T06:08:27.990Z,0.6
2023-01-13T06:09:35.784Z,0.7
2023-01-13T06:10:45.517Z,0.8
2023-01-13T06:11:55.254Z,0.9
2023-01-13T06:13:04.010Z,0.7
2023-01-13T06:14:13.746Z,0.9
2023-01-13T06:15:21.489Z,1
2023-01-13T06:16:31.219Z,1.1
2023-01-13T06:17:40.996Z,1
2023-01-13T06:18:48.692Z,1.1
2023-01-13T06:19:58.419Z,1
2023-01-13T06:21:07.239Z,0.9
2023-01-13T06:22:15.949Z,1.2
2023-01-13T06:23:25.682Z,0.8
2023-01-13T06:24:34.447Z,0.9
2023-01-13T06:25:44.205Z,1
2023-01-13T06:26:53.998Z,1
2023-01-13T06:28:02.745Z,0.9
2023-01-13T06:29:12.506Z,0.6
2023-01-13T06:30:22.266Z,0.8
2023-01-13T06:31:31.065Z,0.7
2023-01-13T06:32:40.857Z,0.7
2023-01-13T06:33:49.655Z,0.6
2023-01-13T06:34:59.340Z,0.6
2023-01-13T06:36:09.085Z,0.8
2023-01-13T06:37:18.863Z,0.6
2023-01-13T06:38:28.600Z,0.5
2023-01-13T06:39:38.354Z,0.5
2023-01-13T06:40:48.131Z,0.6
2023-01-13T06:41:57.870Z,0.5
2023-01-13T06:43:07.618Z,0.5
2023-01-13T06:44:16.355Z,0.6
2023-01-13T06:45:26.125Z,0.5
2023-01-13T06:46:34.911Z,0.4
2023-01-13T06:47:44.594Z,0.5
2023-01-13T06:48:53.342Z,0.4
2023-01-13T06:50:03.099Z,0.6
2023-01-13T06:51:12.849Z,0.8
2023-01-13T06:52:21.623Z,0.6
2023-01-13T06:53:31.378Z,0.5
2023-01-13T06:54:41.160Z,0.5
2023-01-13T06:55:49.964Z,0.6
2023-01-13T06:56:59.697Z,0.4
2023-01-13T06:58:09.432Z,0.9
2023-01-13T06:59:19.183Z,0.7
2023-01-13T07:00:28.925Z,0.6
2023-01-13T07:01:38.834Z,0.6
2023-01-13T07:02:49.484Z,0.7
2023-01-13T07:03:59.227Z,0.7
2023-01-13T07:05:07.919Z,0.8
2023-01-13T07:06:17.675Z,0.7
2023-01-13T07:07:26.472Z,0.7
2023-01-13T07:08:36.239Z,0.9
2023-01-13T07:09:45.973Z,0.7
2023-01-13T07:10:55.721Z,0.7
2023-01-13T07:12:04.471Z,0.7
2023-01-13T07:13:14.191Z,0.5
2023-01-13T07:14:23.941Z,1
2023-01-13T07:15:33.691Z,0.8
2023-01-13T07:16:42.458Z,0.9
2023-01-13T07:17:52.189Z,0.8
2023-01-13T07:19:00.962Z,0.9
2023-01-13T07:20:09.716Z,1.2
2023-01-13T07:21:19.472Z,0.9
2023-01-13T07:22:29.187Z,0.7
2023-01-13T07:23:38.974Z,1.2
2023-01-13T07:24:48.752Z,0.8
2023-01-13T07:25:58.502Z,0.8
2023-01-13T07:27:08.272Z,1.1
2023-01-13T07:28:17.032Z,1.2
2023-01-13T07:29:25.804Z,0.9
2023-01-13T07:30:35.538Z,0.7
2023-01-13T07:31:45.318Z,1.1
2023-01-13T07:32:55.042Z,0.9
2023-01-13T07:34:05.298Z,0.7
2023-01-13T07:35:14.104Z,0.9
2023-01-13T07:36:23.824Z,1.2
2023-01-13T07:37:33.587Z,0.7
2023-01-13T07:38:43.331Z,0.9
2023-01-13T07:39:53.099Z,1
2023-01-13T07:41:01.843Z,0.9
2023-01-13T07:42:11.636Z,0.9
2023-01-13T07:43:21.346Z,1
2023-01-13T07:44:31.102Z,0.8
2023-01-13T07:45:40.882Z,0.8
2023-01-13T07:46:50.619Z,0.7
2023-01-13T07:48:00.373Z,1.3
2023-01-13T07:49:10.125Z,0.8
2023-01-13T07:50:19.884Z,0.7
2023-01-13T07:51:29.599Z,0.9
2023-01-13T07:52:39.340Z,1
2023-01-13T07:53:48.094Z,1
2023-01-13T07:54:57.810Z,1
2023-01-13T07:56:07.527Z,0.9
2023-01-13T07:57:17.275Z,1.1
2023-01-13T07:58:26.996Z,1.1
2023-01-13T07:59:36.758Z,0.8
2023-01-13T08:00:46.525Z,1.2
2023-01-13T08:01:56.491Z,0.9
2023-01-13T08:03:05.056Z,1.4
2023-01-13T08:04:14.742Z,1.1
2023-01-13T08:05:24.566Z,0.9
2023-01-13T08:06:34.298Z,0.9
2023-01-13T08:07:44.078Z,0.8
2023-01-13T08:08:53.809Z,0.8
2023-01-13T08:10:03.574Z,0.7
2023-01-13T08:11:13.322Z,0.7
2023-01-13T08:12:22.053Z,0.4
2023-01-13T08:13:31.834Z,0.4
2023-01-13T08:14:41.601Z,0.4
2023-01-13T08:15:50.381Z,0.3
2023-01-13T08:17:00.185Z,0.2
2023-01-13T08:18:09.920Z,0.3
2023-01-13T08:19:19.668Z,0.3
2023-01-13T08:20:29.504Z,0.3
2023-01-13T08:21:39.278Z,0.2
2023-01-13T08:22:49.036Z,0.3
2023-01-13T08:23:58.775Z,0.2
2023-01-13T08:25:07.581Z,0.3
2023-01-13T08:26:17.409Z,0.3
2023-01-13T08:27:26.991Z,0.4
2023-01-13T08:28:35.675Z,0.3
2023-01-13T08:29:45.479Z,0.3
2023-01-13T08:30:55.272Z,0.4
2023-01-13T08:32:04.971Z,0.4
2023-01-13T08:33:14.684Z,0.7
2023-01-13T08:34:22.428Z,0.7
2023-01-13T08:35:32.192Z,0.8
2023-01-13T08:36:41.882Z,0.6
2023-01-13T08:37:51.650Z,0.7
2023-01-13T08:39:01.381Z,0.6
2023-01-13T08:40:11.107Z,0.4
2023-01-13T08:41:20.852Z,0.4
2023-01-13T08:42:30.570Z,0.4
2023-01-13T08:43:40.393Z,0.4
2023-01-13T08:44:50.128Z,0.5
2023-01-13T08:46:00.053Z,0.5
2023-01-13T08:47:07.872Z,0.6
2023-01-13T08:48:17.624Z,0.6
2023-01-13T08:49:27.375Z,0.5
2023-01-13T08:50:37.175Z,0.4
2023-01-13T08:51:46.919Z,0.5
2023-01-13T08:52:56.676Z,0.4
2023-01-13T08:54:06.428Z,0.4
2023-01-13T08:55:15.159Z,0.4
2023-01-13T08:56:24.913Z,0.3
2023-01-13T08:57:34.695Z,0.4
2023-01-13T08:58:44.420Z,0.5
2023-01-13T08:59:54.173Z,0.6
2023-01-13T09:01:03.944Z,0.5
2023-01-13T09:02:13.759Z,0.5
2023-01-13T09:03:23.405Z,0.4
2023-01-13T09:04:33.179Z,0.3
2023-01-13T09:05:42.917Z,0.4
2023-01-13T09:06:52.625Z,0.5
2023-01-13T09:08:02.364Z,0.4
2023-01-13T09:09:12.112Z,0.4
2023-01-13T09:10:21.822Z,0.4
2023-01-13T09:11:30.569Z,0.4
2023-01-13T09:12:40.342Z,0.6
2023-01-13T09:13:49.067Z,0.6
2023-01-13T09:14:58.874Z,0.5
2023-01-13T09:16:08.691Z,0.4
2023-01-13T09:17:17.370Z,0.3
2023-01-13T09:18:27.128Z,0.4
2023-01-13T09:19:36.873Z,0.7
2023-01-13T09:20:46.664Z,1
2023-01-13T09:21:56.431Z,1.5
2023-01-13T09:23:08.916Z,1.3
2023-01-13T09:24:16.916Z,1
2023-01-13T09:25:26.650Z,0.6
2023-01-13T09:26:36.410Z,0.4
2023-01-13T09:27:46.138Z,0.4
2023-01-13T09:28:55.888Z,0.2
2023-01-13T09:30:05.647Z,0.2
2023-01-13T09:31:15.446Z,0.2
2023-01-13T09:32:24.181Z,0.2
2023-01-13T09:33:33.941Z,0.3
2023-01-13T09:34:42.650Z,0.2
2023-01-13T09:35:52.597Z,0.2
2023-01-13T09:37:02.180Z,0.2
2023-01-13T09:38:10.966Z,0.5
2023-01-13T09:39:20.745Z,0.3
2023-01-13T09:40:29.514Z,0.5
2023-01-13T09:41:39.262Z,0.5
2023-01-13T09:42:49.014Z,0.5
2023-01-13T09:43:58.812Z,0.4
2023-01-13T09:45:08.566Z,0.4
2023-01-13T09:46:18.356Z,0.3
2023-01-13T09:47:28.127Z,0.5
2023-01-13T09:48:37.879Z,0.4
2023-01-13T09:49:46.683Z,0.3
2023-01-13T09:50:55.431Z,0.3
2023-01-13T09:52:05.222Z,0.3
2023-01-13T09:53:14.905Z,0.3
2023-01-13T09:54:24.686Z,0.3
2023-01-13T09:55:34.465Z,0.4
2023-01-13T09:56:42.176Z,0.4
2023-01-13T09:57:51.927Z,0.3
2023-01-13T09:59:01.688Z,0.2
2023-01-13T10:00:10.462Z,0.4
2023-01-13T10:01:20.333Z,0.4
2023-01-13T10:02:30.000Z,0.3
2023-01-13T10:03:39.843Z,0.2
2023-01-13T10:04:49.571Z,0.3
2023-01-13T10:05:57.297Z,0.4
2023-01-13T10:07:07.066Z,0.3
2023-01-13T10:08:16.855Z,0.5
2023-01-13T10:09:25.613Z,0.4
2023-01-13T10:10:35.433Z,0.3
2023-01-13T10:11:43.163Z,0.4
2023-01-13T10:12:52.962Z,0.2
2023-01-13T10:14:02.709Z,0.1
2023-01-13T10:15:12.517Z,0.2
2023-01-13T10:16:22.255Z,0.2
2023-01-13T10:17:31.980Z,0.3
2023-01-13T10:18:41.760Z,0.2
2023-01-13T10:19:51.505Z,0.2
2023-01-13T10:21:00.236Z,0.2
2023-01-13T10:22:09.965Z,0.1
2023-01-13T10:23:19.764Z,0.3
2023-01-13T10:24:28.493Z,0.2
2023-01-13T10:25:38.247Z,0.1
2023-01-13T10:26:47.041Z,0.2
2023-01-13T10:27:56.800Z,0.2
2023-01-13T10:29:06.534Z,0.2
2023-01-13T10:30:16.304Z,0.2
2023-01-13T10:31:25.145Z,0.3
2023-01-13T10:32:34.792Z,0.3
2023-01-13T10:33:44.560Z,0.4
2023-01-13T10:34:54.268Z,0.4
2023-01-13T10:36:02.980Z,0.2
2023-01-13T10:37:11.666Z,0.2
2023-01-13T10:38:21.375Z,0.4
2023-01-13T10:39:31.160Z,0.2
2023-01-13T10:40:40.918Z,0.3
2023-01-13T10:41:50.702Z,0.3
2023-01-13T10:43:00.477Z,0.3
2023-01-13T10:44:10.232Z,0.3
2023-01-13T10:45:20.042Z,0.3
2023-01-13T10:46:28.850Z,0.3
2023-01-13T10:47:38.542Z,0.3
2023-01-13T10:48:48.306Z,0.3
2023-01-13T10:49:57.135Z,0.6
2023-01-13T10:51:06.911Z,0.6
2023-01-13T10:52:15.732Z,0.8
2023-01-13T10:53:25.526Z,0.4
2023-01-13T10:54:35.253Z,0.4
2023-01-13T10:55:45.001Z,0.3
2023-01-13T10:56:54.764Z,0.1
2023-01-13T10:58:04.496Z,0.3
2023-01-13T10:59:14.298Z,0.2
2023-01-13T11:00:24.110Z,0.2
2023-01-13T11:01:32.985Z,0.2
2023-01-13T11:02:42.671Z,0.2
2023-01-13T11:03:52.367Z,0.4
2023-01-13T11:05:02.257Z,0.2
2023-01-13T11:06:11.881Z,0.2
2023-01-13T11:07:21.676Z,0.2
2023-01-13T11:08:31.489Z,0.3
2023-01-13T11:09:40.254Z,0.4
2023-01-13T11:10:50.003Z,0.2
2023-01-13T11:11:59.770Z,0.3
2023-01-13T11:13:10.493Z,0.2
2023-01-13T11:14:20.276Z,0.3
2023-01-13T11:15:29.978Z,0.4
2023-01-13T11:16:40.792Z,0.4
2023-01-13T11:17:48.506Z,0.4
2023-01-13T11:18:58.258Z,0.4
2023-01-13T11:20:08.024Z,0.4
2023-01-13T11:21:17.822Z,0.3
2023-01-13T11:22:27.577Z,0.3
2023-01-13T11:23:37.380Z,0.4
2023-01-13T11:24:46.096Z,0.3
2023-01-13T11:25:55.911Z,0.4
2023-01-13T11:27:05.743Z,0.5
2023-01-13T11:28:15.495Z,0.4
2023-01-13T11:29:25.268Z,0.5
2023-01-13T11:30:35.017Z,0.3
2023-01-13T11:31:44.778Z,0.4
2023-01-13T11:32:54.532Z,0.5
2023-01-13T11:34:04.294Z,0.8
2023-01-13T11:35:14.055Z,0.9
2023-01-13T11:36:23.798Z,0.6
2023-01-13T11:37:33.548Z,0.4
2023-01-13T11:38:43.308Z,0.3
2023-01-13T11:39:53.036Z,0.4
2023-01-13T11:41:02.813Z,0.2
2023-01-13T11:42:12.573Z,0.3
2023-01-13T11:43:22.307Z,0.3
2023-01-13T11:44:31.069Z,0.2
2023-01-13T11:45:40.874Z,0.2
2023-01-13T11:46:48.636Z,0.2
2023-01-13T11:47:58.382Z,0.2
2023-01-13T11:49:08.180Z,0.2
2023-01-13T11:50:17.978Z,0.2
2023-01-13T11:51:27.882Z,0.3
2023-01-13T11:52:37.669Z,0.2
2023-01-13T11:53:45.380Z,0.2
2023-01-13T11:54:55.205Z,0.2
2023-01-13T11:56:03.876Z,0.4
2023-01-13T11:57:13.739Z,0.3
2023-01-13T11:58:23.522Z,0.3
2023-01-13T11:59:32.255Z,0.4
2023-01-13T12:00:42.018Z,0.3
2023-01-13T12:01:51.964Z,0.3
2023-01-13T12:03:01.981Z,0.2
2023-01-13T12:04:11.638Z,0.2
2023-01-13T12:05:19.343Z,0.3
2023-01-13T12:06:29.224Z,0.3
2023-01-13T12:07:38.960Z,0.3
2023-01-13T12:08:48.715Z,0.3
2023-01-13T12:09:58.571Z,0.3
2023-01-13T12:11:08.323Z,0.3
2023-01-13T12:12:18.087Z,0.3
2023-01-13T12:13:27.905Z,0.3
2023-01-13T12:14:36.814Z,0.3
2023-01-13T12:15:46.485Z,0.3
2023-01-13T12:16:56.314Z,0.3
2023-01-13T12:18:05.909Z,0.3
2023-01-13T12:19:15.622Z,0.3
2023-01-13T12:20:25.376Z,0.3
2023-01-13T12:21:35.127Z,0.3
2023-01-13T12:22:44.883Z,0.3
2023-01-13T12:23:53.643Z,0.3
2023-01-13T12:25:03.462Z,0.3
2023-01-13T12:26:13.184Z,0.3
2023-01-13T12:27:22.932Z,0.3
2023-01-13T12:28:32.697Z,0.3
2023-01-13T12:29:42.525Z,0.3
2023-01-13T12:30:52.282Z,0.3
2023-01-13T12:32:02.052Z,0.3
2023-01-13T12:33:11.788Z,0.3
2023-01-13T12:34:21.506Z,0.3
2023-01-13T12:35:31.181Z,0.3
2023-01-13T12:36:39.940Z,0.3
2023-01-13T12:37:49.658Z,0.3
2023-01-13T12:38:59.342Z,0.3
2023-01-13T12:40:08.134Z,0.3
2023-01-13T12:41:17.867Z,0.3
2023-01-13T12:42:26.583Z,0.3
2023-01-13T12:43:36.326Z,0.3
2023-01-13T12:44:46.057Z,0.3
2023-01-13T12:45:54.799Z,0.3
2023-01-13T12:47:04.601Z,0.3
2023-01-13T12:48:14.383Z,0.3
2023-01-13T12:49:24.167Z,0.3
2023-01-13T12:50:33.900Z,0.3
2023-01-13T12:51:42.642Z,0.3
2023-01-13T12:52:52.387Z,0.3
2023-01-13T12:54:02.167Z,0.3
2023-01-13T12:55:11.125Z,0.3
2023-01-13T12:56:20.827Z,0.3
2023-01-13T12:57:30.570Z,0.3
2023-01-13T12:58:40.308Z,0.3
2023-01-13T12:59:50.083Z,0.3
2023-01-13T13:01:00.007Z,0.3
2023-01-13T13:02:09.766Z,0.3
2023-01-13T13:03:19.671Z,0.3
2023-01-13T13:04:29.029Z,0.3
2023-01-13T13:05:38.709Z,0.3
2023-01-13T13:06:47.385Z,0.3
2023-01-13T13:07:56.083Z,0.3
2023-01-13T13:09:05.810Z,0.3
2023-01-13T13:10:15.561Z,0.3
2023-01-13T13:11:24.268Z,0.3
2023-01-13T13:12:34.109Z,0.3
2023-01-13T13:13:43.848Z,0.3
2023-01-13T13:14:53.731Z,0.3
2023-01-13T13:16:03.420Z,0.3
2023-01-13T13:17:12.188Z,0.3
2023-01-13T13:18:21.994Z,0.3
2023-01-13T13:19:30.725Z,0.3
2023-01-13T13:20:40.488Z,0.3
2023-01-13T13:21:50.225Z,0.3
2023-01-13T13:22:59.957Z,0.3
2023-01-13T13:24:09.746Z,0.3
2023-01-13T13:25:18.561Z,0.3
2023-01-13T13:26:28.269Z,0.3
2023-01-13T13:27:38.025Z,0.3
2023-01-13T13:28:47.810Z,0.3
2023-01-13T13:29:57.610Z,0.3
2023-01-13T13:31:07.436Z,0.3
2023-01-13T13:32:17.114Z,0.3
2023-01-13T13:33:26.840Z,0.3
2023-01-13T13:34:36.600Z,0.3
2023-01-13T13:35:46.334Z,0.3
2023-01-13T13:36:55.055Z,0.3
2023-01-13T13:38:04.785Z,0.3
2023-01-13T13:39:14.554Z,0.3
2023-01-13T13:40:24.318Z,0.3
2023-01-13T13:41:33.047Z,0.3
2023-01-13T13:42:43.822Z,0.3
2023-01-13T13:43:53.709Z,0.3
2023-01-13T13:45:03.477Z,0.3
2023-01-13T13:46:13.456Z,0.3
2023-01-13T13:47:22.287Z,0.3
2023-01-13T13:48:32.040Z,0.3
2023-01-13T13:49:41.937Z,0.3
2023-01-13T13:50:50.693Z,0.3
2023-01-13T13:52:00.483Z,0.3
2023-01-13T13:53:10.253Z,0.3
2023-01-13T13:54:19.979Z,0.3
2023-01-13T13:55:29.777Z,0.3
2023-01-13T13:56:38.539Z,0.3
2023-01-13T13:57:48.294Z,0.3
2023-01-13T13:58:58.080Z,0.3
2023-01-13T14:00:06.831Z,0.3
2023-01-13T14:01:16.625Z,0.3
2023-01-13T14:02:26.344Z,0.3
2023-01-13T14:03:38.338Z,0.3
2023-01-13T14:04:46.933Z,0.3
2023-01-13T14:05:56.701Z,0.3
2023-01-13T14:07:06.435Z,0.3
2023-01-13T14:08:14.071Z,0.3
2023-01-13T14:09:25.523Z,0.3
2023-01-13T14:10:35.536Z,0.3
2023-01-13T14:11:44.075Z,0.3
2023-01-13T14:12:53.856Z,0.3
2023-01-13T14:14:03.612Z,0.3
2023-01-13T14:15:12.350Z,0.3
2023-01-13T14:16:22.129Z,0.3
2023-01-13T14:17:31.857Z,0.3
2023-01-13T14:18:41.612Z,0.3
2023-01-13T14:19:51.368Z,0.3
2023-01-13T14:21:01.075Z,0.3
2023-01-13T14:22:10.847Z,0.3
2023-01-13T14:23:20.591Z,0.3
2023-01-13T14:24:29.325Z,0.3
2023-01-13T14:25:39.071Z,0.3
2023-01-13T14:26:48.777Z,0.3
2023-01-13T14:27:58.531Z,0.3
2023-01-13T14:29:08.258Z,0.3
2023-01-13T14:30:17.980Z,0.3
2023-01-13T14:31:27.796Z,0.3
2023-01-13T14:32:36.602Z,0.3
2023-01-13T14:33:46.302Z,0.3
2023-01-13T14:34:56.040Z,0.3
2023-01-13T14:36:05.808Z,0.3
2023-01-13T14:37:15.603Z,0.3
2023-01-13T14:38:25.395Z,0.3
2023-01-13T14:39:35.197Z,0.3
2023-01-13T14:40:44.944Z,0.3
2023-01-13T14:41:53.631Z,0.3
2023-01-13T14:43:02.369Z,0.3
2023-01-13T14:44:12.173Z,0.3
2023-01-13T14:45:21.977Z,0.3
2023-01-13T14:46:31.762Z,0.3
2023-01-13T14:47:41.483Z,0.3
2023-01-13T14:48:51.233Z,0.3
2023-01-13T14:50:00.991Z,0.3
2023-01-13T14:51:10.769Z,0.3
2023-01-13T14:52:20.539Z,0.3
2023-01-13T14:53:30.264Z,0.3
2023-01-13T14:54:39.033Z,0.3
2023-01-13T14:55:47.751Z,0.3
2023-01-13T14:56:57.393Z,0.3
2023-01-13T14:58:05.078Z,0.3
2023-01-13T14:59:14.755Z,0.3
2023-01-13T15:00:24.466Z,0.3
2023-01-13T15:01:33.385Z,0.3
2023-01-13T15:02:43.087Z,0.3
2023-01-13T15:03:52.782Z,0.3
2023-01-13T15:05:01.428Z,0.3
2023-01-13T15:06:10.087Z,0.3
2023-01-13T15:07:17.758Z,0.3
2023-01-13T15:08:26.479Z,0.3
2023-01-13T15:09:35.160Z,0.3
2023-01-13T15:10:44.926Z,0.3
2023-01-13T15:11:54.714Z,0.3
2023-01-13T15:13:04.432Z,0.3
2023-01-13T15:14:13.165Z,0.3
2023-01-13T15:15:22.887Z,0.3
2023-01-13T15:16:33.320Z,0.3
2023-01-13T15:17:42.399Z,0.3
2023-01-13T15:18:52.103Z,0.3
2023-01-13T15:20:00.868Z,0.3
2023-01-13T15:21:10.635Z,0.3
2023-01-13T15:22:19.380Z,0.3
2023-01-13T15:23:29.100Z,0.3
2023-01-13T15:24:36.749Z,0.3
2023-01-13T15:25:46.508Z,0.3
2023-01-13T15:26:56.191Z,0.3
2023-01-13T15:28:04.885Z,0.3
2023-01-13T15:29:14.505Z,0.3
2023-01-13T15:30:24.278Z,0.3
2023-01-13T15:31:34.181Z,0.3
2023-01-13T15:32:43.877Z,0.3
2023-01-13T15:33:52.604Z,0.3
2023-01-13T15:35:02.396Z,0.3
2023-01-13T15:36:12.159Z,0.3
2023-01-13T15:37:21.914Z,0.3
2023-01-13T15:38:31.644Z,0.3
2023-01-13T15:39:41.380Z,0.3
2023-01-13T15:40:51.144Z,0.3
2023-01-13T15:42:00.878Z,0.3
2023-01-13T15:43:10.722Z,0.3
2023-01-13T15:44:20.432Z,0.3
2023-01-13T15:45:30.179Z,0.3
2023-01-13T15:46:40.049Z,0.3
2023-01-13T15:47:49.659Z,0.3
2023-01-13T15:48:59.393Z,0.3
2023-01-13T15:50:09.133Z,0.3
2023-01-13T15:51:18.872Z,0.3
2023-01-13T15:52:28.607Z,0.3
2023-01-13T15:53:38.337Z,0.3
2023-01-13T15:54:48.106Z,0.3
2023-01-13T15:55:56.847Z,0.3
2023-01-13T15:57:06.624Z,0.3
2023-01-13T15:58:16.374Z,0.3
2023-01-13T15:59:26.112Z,0.3